createdAt,value
2018-07-04T00:00:51.714Z,80.17
2018-07-04T00:03:30.177Z,80.22
2018-07-04T00:06:08.700Z,80.52
2018-07-04T00:08:47.181Z,80.49
2018-07-04T00:11:25.757Z,80.61
2018-07-04T00:14:04.112Z,81.06
2018-07-04T00:16:42.701Z,80.78
2018-07-04T00:19:21.247Z,80.95
2018-07-04T00:21:59.833Z,80.87
2018-07-04T00:24:38.474Z,81.16
2018-07-04T00:27:17.105Z,80.95
2018-07-04T00:29:55.601Z,81.15
2018-07-04T00:32:34.321Z,81.31
2018-07-04T00:35:12.802Z,81.12
2018-07-04T00:37:51.304Z,81.38
2018-07-04T00:40:29.738Z,81.48
2018-07-04T00:43:08.329Z,81.30
2018-07-04T00:45:46.785Z,81.53
2018-07-04T00:48:25.156Z,81.74
2018-07-04T00:51:03.677Z,81.88
2018-07-04T00:53:42.353Z,81.92
2018-07-04T00:56:20.885Z,82.34
2018-07-04T00:58:59.436Z,82.15
2018-07-04T01:01:38.026Z,82.11
2018-07-04T01:04:16.665Z,82.21
2018-07-04T01:06:55.266Z,82.45
2018-07-04T01:09:33.779Z,82.52
2018-07-04T01:12:12.217Z,82.58
2018-07-04T01:14:50.893Z,82.63
2018-07-04T01:17:29.381Z,82.93
2018-07-04T01:20:07.821Z,82.86
2018-07-04T01:22:46.377Z,82.82
2018-07-04T01:25:24.805Z,83.17
2018-07-04T01:28:03.349Z,83.00
2018-07-04T01:30:42.001Z,83.15
2018-07-04T01:33:20.701Z,83.04
2018-07-04T01:35:59.294Z,83.04
2018-07-04T01:38:37.770Z,83.18
2018-07-04T01:41:16.313Z,83.08
2018-07-04T01:43:54.970Z,83.34
2018-07-04T01:46:33.723Z,83.11
2018-07-04T01:49:12.323Z,83.03
2018-07-04T01:51:50.737Z,83.53
2018-07-04T01:54:29.132Z,83.42
2018-07-04T01:57:08.001Z,82.93
2018-07-04T01:59:46.593Z,83.01
2018-07-04T02:02:25.145Z,83.13
2018-07-04T02:05:03.548Z,83.24
2018-07-04T02:07:42.152Z,83.29
2018-07-04T02:10:20.753Z,83.05
2018-07-04T02:12:59.313Z,83.28
2018-07-04T02:15:37.964Z,83.11
2018-07-04T02:18:16.538Z,83.06
2018-07-04T02:20:55.029Z,82.93
2018-07-04T02:23:33.542Z,83.54
2018-07-04T02:26:12.397Z,83.63
2018-07-04T02:28:50.829Z,83.39
2018-07-04T02:31:29.258Z,83.39
2018-07-04T02:34:07.870Z,83.53
2018-07-04T02:36:46.566Z,83.50
2018-07-04T02:39:25.013Z,83.16
2018-07-04T02:42:03.520Z,83.59
2018-07-04T02:44:41.865Z,83.88
2018-07-04T02:47:26.869Z,83.91
2018-07-04T02:50:05.577Z,83.69
2018-07-04T02:52:44.333Z,83.73
2018-07-04T02:55:23.129Z,83.64
2018-07-04T02:58:01.630Z,83.82
2018-07-04T03:00:40.158Z,83.51
2018-07-04T03:03:18.690Z,83.70
2018-07-04T03:05:57.261Z,83.98
2018-07-04T03:08:36.139Z,83.96
2018-07-04T03:11:14.673Z,84.15
2018-07-04T03:13:53.265Z,83.85
2018-07-04T03:16:31.885Z,83.89
2018-07-04T03:19:10.499Z,83.83
2018-07-04T03:21:48.965Z,83.86
2018-07-04T03:24:27.619Z,84.15
2018-07-04T03:27:06.263Z,83.95
2018-07-04T03:29:44.844Z,84.06
2018-07-04T03:32:23.509Z,83.99
2018-07-04T03:35:02.110Z,83.95
2018-07-04T03:37:40.650Z,83.55
2018-07-04T03:40:19.221Z,83.76
2018-07-04T03:42:57.920Z,84.00
2018-07-04T03:45:36.510Z,83.81
2018-07-04T03:48:14.989Z,84.14
2018-07-04T03:50:53.592Z,84.18
2018-07-04T03:53:32.059Z,83.81
2018-07-04T03:56:10.558Z,83.85
2018-07-04T03:58:49.058Z,83.61
2018-07-04T04:01:27.889Z,83.58
2018-07-04T04:04:06.420Z,83.76
2018-07-04T04:06:45.079Z,83.58
2018-07-04T04:09:23.765Z,83.70
2018-07-04T04:12:02.661Z,83.48
2018-07-04T04:14:41.169Z,83.68
2018-07-04T04:17:19.904Z,83.72
2018-07-04T04:19:58.457Z,84.03
2018-07-04T04:22:37.170Z,83.72
2018-07-04T04:25:15.566Z,83.92
2018-07-04T04:27:54.101Z,84.22
2018-07-04T04:30:32.983Z,83.75
2018-07-04T04:33:11.665Z,83.75
2018-07-04T04:35:50.319Z,84.00
2018-07-04T04:38:28.920Z,84.02
2018-07-04T04:41:07.554Z,83.70
2018-07-04T04:43:46.355Z,83.66
2018-07-04T04:46:24.864Z,83.30
2018-07-04T04:49:03.611Z,83.22
2018-07-04T04:51:42.173Z,83.04
2018-07-04T04:54:21.093Z,83.06
2018-07-04T04:56:59.706Z,82.56
2018-07-04T04:59:38.371Z,82.57
2018-07-04T05:02:16.973Z,82.38
2018-07-04T05:04:55.604Z,82.51
2018-07-04T05:07:34.121Z,82.43
2018-07-04T05:10:12.673Z,82.12
2018-07-04T05:12:51.140Z,82.18
2018-07-04T05:15:29.654Z,81.97
2018-07-04T05:18:08.121Z,81.80
2018-07-04T05:20:46.801Z,81.69
2018-07-04T05:23:25.396Z,81.17
2018-07-04T05:26:04.064Z,81.40
2018-07-04T05:28:42.649Z,80.97
2018-07-04T05:31:21.234Z,80.67
2018-07-04T05:33:59.706Z,80.08
2018-07-04T05:36:38.378Z,80.29
2018-07-04T05:39:16.874Z,80.16
2018-07-04T05:41:55.581Z,79.90
2018-07-04T05:44:34.193Z,79.33
2018-07-04T05:47:12.674Z,79.50
2018-07-04T05:49:51.181Z,79.18
2018-07-04T05:52:29.703Z,78.94
2018-07-04T05:55:08.196Z,78.78
2018-07-04T05:57:46.841Z,78.91
2018-07-04T06:00:25.442Z,78.60
2018-07-04T06:03:03.928Z,78.49
2018-07-04T06:05:42.613Z,78.66
2018-07-04T06:08:21.111Z,78.51
2018-07-04T06:10:59.680Z,78.35
2018-07-04T06:13:38.281Z,78.11
2018-07-04T06:16:16.832Z,77.52
2018-07-04T06:18:55.266Z,76.71
2018-07-04T06:21:34.189Z,76.30
2018-07-04T06:24:12.673Z,75.54
2018-07-04T06:26:51.193Z,76.28
2018-07-04T06:29:29.609Z,76.02
2018-07-04T06:32:08.273Z,75.68
2018-07-04T06:34:46.693Z,76.09
2018-07-04T06:37:25.158Z,75.80
2018-07-04T06:39:51.216Z,75.24
2018-07-04T06:42:17.317Z,74.56
2018-07-04T06:44:43.398Z,74.37
2018-07-04T06:47:09.549Z,74.18
2018-07-04T06:49:35.635Z,74.14
2018-07-04T06:52:01.709Z,74.30
2018-07-04T06:54:27.860Z,73.69
2018-07-04T06:56:53.994Z,73.11
2018-07-04T06:59:20.057Z,72.28
2018-07-04T07:01:46.148Z,71.46
2018-07-04T07:04:24.801Z,71.54
2018-07-04T07:07:03.446Z,71.12
2018-07-04T07:09:42.094Z,70.91
2018-07-04T07:12:20.641Z,70.65
2018-07-04T07:14:59.185Z,70.08
2018-07-04T07:17:37.731Z,70.15
2018-07-04T07:20:16.279Z,69.91
2018-07-04T07:22:54.980Z,70.76
2018-07-04T07:25:33.557Z,69.72
2018-07-04T07:28:12.085Z,68.92
2018-07-04T07:30:50.614Z,69.08
2018-07-04T07:33:29.336Z,69.20
2018-07-04T07:36:07.978Z,68.04
2018-07-04T07:38:46.585Z,68.53
2018-07-04T07:41:24.977Z,67.18
2018-07-04T07:44:03.528Z,66.36
2018-07-04T07:46:42.041Z,65.61
2018-07-04T07:49:20.517Z,64.25
2018-07-04T07:51:59.009Z,63.31
2018-07-04T07:54:37.449Z,63.05
2018-07-04T07:57:16.194Z,63.79
2018-07-04T07:59:54.705Z,61.66
2018-07-04T08:02:33.224Z,60.29
2018-07-04T08:05:11.725Z,58.15
2018-07-04T08:07:50.240Z,58.74
2018-07-04T08:10:28.842Z,58.48
2018-07-04T08:13:07.734Z,58.94
2018-07-04T08:15:46.281Z,57.18
2018-07-04T08:18:24.769Z,57.29
2018-07-04T08:21:03.327Z,57.96
2018-07-04T08:23:41.994Z,56.94
2018-07-04T08:26:20.481Z,57.38
2018-07-04T08:28:59.062Z,56.28
2018-07-04T08:31:37.505Z,56.66
2018-07-04T08:34:15.984Z,56.04
2018-07-04T08:36:54.421Z,57.64
2018-07-04T08:39:32.958Z,55.88
2018-07-04T08:42:11.465Z,56.21
2018-07-04T08:44:49.930Z,56.54
2018-07-04T08:47:28.366Z,56.85
2018-07-04T08:50:06.893Z,56.88
2018-07-04T08:52:45.544Z,57.09
2018-07-04T08:55:23.993Z,57.50
2018-07-04T08:58:02.524Z,57.50
2018-07-04T09:00:41.175Z,58.10
2018-07-04T09:03:19.590Z,57.96
2018-07-04T09:05:58.157Z,56.78
2018-07-04T09:08:36.765Z,56.86
2018-07-04T09:11:15.425Z,57.18
2018-07-04T09:13:53.857Z,56.09
2018-07-04T09:16:32.505Z,55.23
2018-07-04T09:19:11.225Z,55.25
2018-07-04T09:21:49.795Z,54.96
2018-07-04T09:24:28.476Z,54.69
2018-07-04T09:27:06.953Z,54.53
2018-07-04T09:29:45.460Z,53.56
2018-07-04T09:32:23.914Z,54.96
2018-07-04T09:35:02.701Z,54.73
2018-07-04T09:37:41.196Z,54.44
2018-07-04T09:40:19.969Z,54.07
2018-07-04T09:42:58.357Z,54.32
2018-07-04T09:45:36.946Z,52.38
2018-07-04T09:48:15.465Z,52.43
2018-07-04T09:50:54.078Z,52.56
2018-07-04T09:53:32.695Z,51.20
2018-07-04T09:56:11.222Z,51.12
2018-07-04T09:58:49.808Z,52.09
2018-07-04T10:01:28.222Z,51.16
2018-07-04T10:04:06.769Z,50.73
2018-07-04T10:06:45.237Z,50.96
2018-07-04T10:09:24.253Z,50.83
2018-07-04T10:12:02.740Z,51.59
2018-07-04T10:14:41.457Z,50.75
2018-07-04T10:17:20.173Z,49.58
2018-07-04T10:19:59.071Z,50.37
2018-07-04T10:22:37.677Z,49.62
2018-07-04T10:25:16.261Z,49.82
2018-07-04T10:27:54.782Z,49.16
2018-07-04T10:30:33.313Z,48.15
2018-07-04T10:33:11.944Z,47.62
2018-07-04T10:35:50.553Z,47.53
2018-07-04T10:38:29.106Z,47.86
2018-07-04T10:41:07.671Z,47.08
2018-07-04T10:43:46.362Z,47.39
2018-07-04T10:46:25.013Z,46.56
2018-07-04T10:49:03.706Z,46.06
2018-07-04T10:51:42.349Z,45.78
2018-07-04T10:54:20.942Z,46.60
2018-07-04T10:56:59.509Z,45.74
2018-07-04T10:59:37.953Z,45.64
2018-07-04T11:02:16.525Z,45.81
2018-07-04T11:04:54.989Z,46.08
2018-07-04T11:07:33.593Z,45.96
2018-07-04T11:10:12.251Z,46.45
2018-07-04T11:12:50.771Z,45.49
2018-07-04T11:15:29.485Z,45.77
2018-07-04T11:18:07.928Z,46.15
2018-07-04T11:20:46.510Z,46.37
2018-07-04T11:23:25.061Z,45.09
2018-07-04T11:26:03.497Z,45.59
2018-07-04T11:28:42.073Z,45.61
2018-07-04T11:31:20.703Z,45.31
2018-07-04T11:33:59.189Z,45.73
2018-07-04T11:36:37.713Z,45.68
2018-07-04T11:39:16.447Z,45.06
2018-07-04T11:41:55.029Z,45.59
2018-07-04T11:44:33.745Z,45.61
2018-07-04T11:46:59.864Z,46.25
2018-07-04T11:49:25.941Z,45.93
2018-07-04T11:51:52.273Z,45.47
2018-07-04T11:54:18.340Z,45.84
2018-07-04T11:56:44.713Z,45.36
2018-07-04T11:59:10.797Z,45.81
2018-07-04T12:01:36.946Z,45.15
2018-07-04T12:04:15.353Z,45.31
2018-07-04T12:06:53.929Z,44.95
2018-07-04T12:09:20.014Z,44.42
2018-07-04T12:11:46.093Z,44.17
2018-07-04T12:14:12.150Z,44.29
2018-07-04T12:16:38.404Z,44.34
2018-07-04T12:19:04.469Z,43.77
2018-07-04T12:21:30.557Z,43.97
2018-07-04T12:23:56.637Z,44.58
2018-07-04T12:26:22.721Z,44.26
2018-07-04T12:28:48.777Z,44.03
2018-07-04T12:31:14.846Z,43.02
2018-07-04T12:33:40.901Z,43.24
2018-07-04T12:36:07.050Z,44.21
2018-07-04T12:38:33.226Z,44.12
2018-07-04T12:40:59.280Z,43.17
2018-07-04T12:43:25.391Z,43.31
2018-07-04T12:45:51.433Z,42.11
2018-07-04T12:48:17.534Z,41.81
2018-07-04T12:50:43.601Z,41.42
2018-07-04T12:53:09.678Z,42.46
2018-07-04T12:55:48.294Z,42.04
2018-07-04T12:58:26.746Z,41.42
2018-07-04T13:01:05.487Z,41.99
2018-07-04T13:03:43.977Z,41.17
2018-07-04T13:06:22.584Z,40.48
2018-07-04T13:09:01.289Z,40.87
2018-07-04T13:11:39.957Z,40.07
2018-07-04T13:14:18.449Z,40.69
2018-07-04T13:16:56.845Z,39.49
2018-07-04T13:19:35.586Z,39.41
2018-07-04T13:22:14.102Z,38.88
2018-07-04T13:24:52.621Z,38.01
2018-07-04T13:27:31.145Z,37.51
2018-07-04T13:30:09.741Z,38.06
2018-07-04T13:32:48.401Z,38.00
2018-07-04T13:35:26.816Z,37.32
2018-07-04T13:38:05.383Z,38.03
2018-07-04T13:40:43.941Z,37.60
2018-07-04T13:43:22.422Z,38.54
2018-07-04T13:46:01.022Z,37.11
2018-07-04T13:48:39.557Z,36.10
2018-07-04T13:51:18.157Z,36.49
2018-07-04T13:53:56.909Z,36.21
2018-07-04T13:56:35.597Z,36.15
2018-07-04T13:59:14.197Z,36.48
2018-07-04T14:01:52.677Z,35.25
2018-07-04T14:04:31.219Z,35.57
2018-07-04T14:07:09.532Z,35.83
2018-07-04T14:09:48.109Z,35.16
2018-07-04T14:12:26.670Z,34.08
2018-07-04T14:15:05.150Z,34.66
2018-07-04T14:17:43.941Z,34.03
2018-07-04T14:20:22.986Z,33.66
2018-07-04T14:23:01.708Z,33.97
2018-07-04T14:25:40.321Z,33.55
2018-07-04T14:28:18.918Z,34.77
2018-07-04T14:30:57.421Z,33.84
2018-07-04T14:33:35.981Z,33.70
2018-07-04T14:36:15.090Z,33.21
2018-07-04T14:38:54.642Z,32.98
2018-07-04T14:41:33.121Z,33.00
2018-07-04T14:44:11.888Z,34.16
2018-07-04T14:46:50.482Z,32.95
2018-07-04T14:49:29.261Z,34.86
2018-07-04T14:52:08.164Z,34.65
2018-07-04T14:54:46.817Z,33.88
2018-07-04T14:57:25.306Z,33.50
2018-07-04T15:00:03.873Z,33.29
2018-07-04T15:02:42.601Z,33.65
2018-07-04T15:05:21.457Z,33.34
2018-07-04T15:08:00.050Z,34.17
2018-07-04T15:10:38.618Z,32.47
2018-07-04T15:13:17.341Z,33.30
2018-07-04T15:15:55.800Z,33.54
2018-07-04T15:18:34.341Z,32.61
2018-07-04T15:21:12.782Z,32.71
2018-07-04T15:23:51.646Z,32.59
2018-07-04T15:26:30.189Z,32.85
2018-07-04T15:29:08.924Z,32.94
2018-07-04T15:31:47.385Z,32.92
2018-07-04T15:34:25.897Z,33.25
2018-07-04T15:37:04.301Z,32.47
2018-07-04T15:39:42.985Z,32.90
2018-07-04T15:42:21.602Z,34.03
2018-07-04T15:45:00.158Z,33.67
2018-07-04T15:47:38.703Z,33.03
2018-07-04T15:50:17.238Z,33.28
2018-07-04T15:52:55.661Z,32.75
2018-07-04T15:55:34.349Z,33.40
2018-07-04T15:58:12.945Z,33.70
2018-07-04T16:00:51.601Z,33.58
2018-07-04T16:03:30.265Z,34.30
2018-07-04T16:06:08.794Z,35.03
2018-07-04T16:08:47.477Z,35.39
2018-07-04T16:11:25.973Z,35.65
2018-07-04T16:14:04.633Z,36.14
2018-07-04T16:16:43.460Z,36.43
2018-07-04T16:19:22.150Z,37.08
2018-07-04T16:22:00.669Z,36.07
2018-07-04T16:24:39.338Z,36.78
2018-07-04T16:27:17.853Z,36.86
2018-07-04T16:29:56.314Z,36.83
2018-07-04T16:32:34.743Z,37.30
2018-07-04T16:35:13.146Z,36.99
2018-07-04T16:37:51.696Z,37.92
2018-07-04T16:40:30.309Z,38.72
2018-07-04T16:43:08.924Z,39.42
2018-07-04T16:45:47.549Z,41.18
2018-07-04T16:48:26.060Z,41.49
2018-07-04T16:51:04.689Z,42.56
2018-07-04T16:53:43.253Z,41.50
2018-07-04T16:56:21.709Z,42.04
2018-07-04T16:59:00.334Z,42.37
2018-07-04T17:01:38.926Z,42.32
2018-07-04T17:04:17.549Z,42.55
2018-07-04T17:06:55.987Z,43.23
2018-07-04T17:09:34.441Z,43.63
2018-07-04T17:12:12.989Z,43.68
2018-07-04T17:14:51.664Z,44.13
2018-07-04T17:17:30.175Z,42.79
2018-07-04T17:20:08.832Z,43.59
2018-07-04T17:22:47.453Z,43.80
2018-07-04T17:25:25.967Z,45.23
2018-07-04T17:28:04.470Z,45.30
2018-07-04T17:30:43.053Z,45.66
2018-07-04T17:33:22.074Z,46.35
2018-07-04T17:36:00.550Z,46.62
2018-07-04T17:38:39.020Z,46.68
2018-07-04T17:41:17.594Z,47.41
2018-07-04T17:43:56.032Z,47.45
2018-07-04T17:46:34.677Z,47.52
2018-07-04T17:49:13.306Z,47.90
2018-07-04T17:51:51.953Z,47.11
2018-07-04T17:54:30.514Z,47.16
2018-07-04T17:57:09.092Z,47.36
2018-07-04T17:59:47.768Z,47.24
2018-07-04T18:02:26.221Z,47.54
2018-07-04T18:05:04.733Z,47.51
2018-07-04T18:07:43.286Z,46.83
2018-07-04T18:10:21.696Z,46.70
2018-07-04T18:13:00.381Z,47.12
2018-07-04T18:15:39.125Z,46.85
2018-07-04T18:18:18.713Z,46.56
2018-07-04T18:20:59.716Z,47.29
2018-07-04T18:23:38.294Z,46.66
2018-07-04T18:26:16.929Z,47.28
2018-07-04T18:28:55.317Z,46.68
2018-07-04T18:31:33.946Z,46.47
2018-07-04T18:34:12.496Z,47.10
2018-07-04T18:36:51.056Z,47.05
2018-07-04T18:39:29.424Z,47.28
2018-07-04T18:42:08.105Z,47.83
2018-07-04T18:44:46.558Z,49.19
2018-07-04T18:47:25.214Z,48.74
2018-07-04T18:50:03.597Z,48.52
2018-07-04T18:52:42.090Z,48.79
2018-07-04T18:55:20.680Z,49.37
2018-07-04T18:57:59.523Z,49.46
2018-07-04T19:00:37.966Z,49.52
2018-07-04T19:03:16.394Z,49.73
2018-07-04T19:05:54.864Z,49.84
2018-07-04T19:08:33.473Z,49.24
2018-07-04T19:11:11.891Z,49.92
2018-07-04T19:13:50.917Z,49.39
2018-07-04T19:16:29.316Z,49.13
2018-07-04T19:19:07.945Z,49.58
2018-07-04T19:21:46.438Z,50.24
2018-07-04T19:24:25.301Z,49.94
2018-07-04T19:27:03.781Z,49.70
2018-07-04T19:29:42.149Z,50.72
2018-07-04T19:32:20.935Z,50.42
2018-07-04T19:34:59.504Z,50.72
2018-07-04T19:37:38.044Z,50.72
2018-07-04T19:40:16.641Z,51.78
2018-07-04T19:42:55.164Z,51.82
2018-07-04T19:45:33.633Z,51.16
2018-07-04T19:48:12.265Z,51.22
2018-07-04T19:50:50.789Z,51.16
2018-07-04T19:53:29.628Z,51.82
2018-07-04T19:56:07.990Z,51.52
2018-07-04T19:58:46.590Z,52.35
2018-07-04T20:01:24.929Z,53.13
2018-07-04T20:04:03.421Z,52.88
2018-07-04T20:06:42.074Z,53.61
2018-07-04T20:09:20.631Z,54.54
2018-07-04T20:11:59.306Z,54.42
2018-07-04T20:14:37.825Z,55.04
2018-07-04T20:17:16.443Z,55.38
2018-07-04T20:19:54.909Z,55.52
2018-07-04T20:22:33.590Z,55.64
2018-07-04T20:25:12.074Z,57.01
2018-07-04T20:27:50.753Z,57.00
2018-07-04T20:30:29.310Z,57.72
2018-07-04T20:33:07.886Z,57.66
2018-07-04T20:35:46.365Z,58.42
2018-07-04T20:38:24.858Z,58.82
2018-07-04T20:41:03.366Z,59.26
2018-07-04T20:43:42.005Z,60.38
2018-07-04T20:46:20.430Z,61.02
2018-07-04T20:48:59.032Z,61.49
2018-07-04T20:51:37.733Z,61.76
2018-07-04T20:54:16.416Z,62.65
2018-07-04T20:56:54.961Z,62.53
2018-07-04T20:59:33.516Z,63.37
2018-07-04T21:02:12.225Z,63.86
2018-07-04T21:04:50.889Z,64.11
2018-07-04T21:07:29.498Z,65.12
2018-07-04T21:10:08.021Z,65.03
2018-07-04T21:12:46.674Z,65.02
2018-07-04T21:15:25.229Z,65.67
2018-07-04T21:18:03.869Z,65.99
2018-07-04T21:20:42.221Z,65.60
2018-07-04T21:23:21.418Z,66.34
2018-07-04T21:25:59.861Z,66.53
2018-07-04T21:28:38.473Z,66.83
2018-07-04T21:31:16.917Z,66.72
2018-07-04T21:33:55.466Z,66.83
2018-07-04T21:36:34.197Z,67.12
2018-07-04T21:39:12.711Z,67.26
2018-07-04T21:41:51.317Z,67.41
2018-07-04T21:44:29.769Z,67.26
2018-07-04T21:47:08.454Z,66.97
2018-07-04T21:49:46.967Z,67.44
2018-07-04T21:52:25.314Z,67.51
2018-07-04T21:55:04.022Z,68.53
2018-07-04T21:57:42.601Z,68.04
2018-07-04T22:00:22.777Z,68.66
2018-07-04T22:03:01.357Z,69.14
2018-07-04T22:05:40.042Z,69.43
2018-07-04T22:08:19.166Z,69.41
2018-07-04T22:10:57.647Z,69.99
2018-07-04T22:13:36.168Z,70.14
2018-07-04T22:16:14.632Z,70.83
2018-07-04T22:18:53.412Z,70.90
2018-07-04T22:21:31.884Z,71.18
2018-07-04T22:24:10.505Z,71.03
2018-07-04T22:26:48.889Z,71.47
2018-07-04T22:29:27.369Z,71.88
2018-07-04T22:32:05.934Z,71.68
2018-07-04T22:34:44.564Z,72.17
2018-07-04T22:37:23.122Z,72.29
2018-07-04T22:40:01.725Z,72.16
2018-07-04T22:42:40.302Z,72.53
2018-07-04T22:45:18.889Z,73.49
2018-07-04T22:47:57.410Z,73.19
2018-07-04T22:50:36.091Z,74.37
2018-07-04T22:53:15.081Z,74.63
2018-07-04T22:55:53.553Z,74.41
2018-07-04T22:58:32.102Z,74.71
2018-07-04T23:01:10.518Z,74.72
2018-07-04T23:03:49.066Z,74.74
2018-07-04T23:06:27.546Z,74.55
2018-07-04T23:09:06.116Z,75.00
2018-07-04T23:11:44.766Z,75.16
2018-07-04T23:14:23.266Z,75.26
2018-07-04T23:17:01.917Z,75.31
2018-07-04T23:19:40.478Z,75.49
2018-07-04T23:22:19.078Z,75.44
2018-07-04T23:24:57.605Z,75.52
2018-07-04T23:27:36.053Z,75.59
2018-07-04T23:30:14.592Z,75.42
2018-07-04T23:32:53.192Z,76.00
2018-07-04T23:35:31.830Z,76.24
2018-07-04T23:38:10.481Z,76.24
2018-07-04T23:40:49.091Z,76.15
2018-07-04T23:43:27.596Z,76.40
2018-07-04T23:46:06.205Z,76.16
2018-07-04T23:48:44.725Z,76.54
2018-07-04T23:51:23.387Z,76.72
2018-07-04T23:54:01.958Z,76.74
2018-07-04T23:56:40.489Z,76.95
2018-07-04T23:59:19.073Z,76.79
